RKST weather

Camp Casey-Dongduchon (Camp Mobile) (H-220) Airfield
Dongduchon, Gyeonggido, South Korea

Public forecast

Using degrees Celsius for public forecast. Weather courtesy of forecast.io.

METAR (pilot weather report)

Closest report is Gimpo International Airport, 25.1 nm (46.5 km) SSW. Retrieved 2019/03/22 22:00 UTC (14 minutes ago):

RKSS 222200Z 18001KT 9999 FEW040 M02/M08 Q1022 NOSIG

TAF (pilot weather forecast)

Closest forecast is Gimpo International Airport, 25.1 nm (46.5 km) SSW. Retrieved 2019/03/22 18:00 UTC (4 hours ago):

TAF RKSS 221700Z 2218/2324 32005KT CAVOK TNM02/2221Z TX08/2307Z TNM03/2321Z BECMG 2222/2223 20007KT 9999 SCT030 BKN120 BECMG 2301/2302 33015G30KT 6000 TEMPO 2302/2306 3200 -TSRASN FEW010CB BKN025 OVC060 BECMG 2310/2311 32010KT NSC BECMG 2315/2316 03005KT